Weather observations for the past three days for
La Grange, Fayette Regional Air Center Airport
Metric (Imperial)
Date Time (cdt) Wind (kph) Vis. (km) Weather Sky Cond. Temperature (ºC) Relative Humidity Wind Chill (°C) Heat Index (°C) Pressure Precipitation (cm)
Air Dwpt 6 hour altimeter (cm) sea level (mb) 1 hr 3 hr 6 hr
Max. Min.
06 20:55 N 19 16.09 Overcast OVC015 18.2 15.7 85% 75.95 0.0
06 20:35 N 20 16.09 Mostly Cloudy BKN016 18.3 15.9 86% 75.92 0.0
06 20:15 N 15 14.48 Partly Cloudy FEW017 SCT250 18.3 15.7 85% 75.9 0.0
06 19:55 N 17 16.09 A Few Clouds FEW019 18.8 15.9 83% 75.87 0.0
06 19:35 N 26 G 33 16.09 Partly Cloudy SCT021 19.3 16 81% 75.84 0.0
06 19:15 N 20 16.09 Mostly Cloudy BKN022 19.9 16.2 79% 75.82 0.0
06 18:55 N 24 G 31 16.09 Partly Cloudy FEW019 SCT025 21 16.9 28.7 21 78% 75.82 0.0
06 18:35 N 17 14.48 Mostly Cloudy BKN019 21.1 17.2 79% 75.79 0.0
06 18:15 N 15 16.09 Mostly Cloudy BKN019 21.7 17.7 78% 75.79 0.0
06 17:55 N 17 G 31 16.09 A Few Clouds FEW370 21.8 18 79% 75.74 0.0
06 17:35 N 17 G 33 16.09 A Few Clouds FEW022 22.2 18.4 79% 75.74 0.0
06 17:15 N 24 G 35 16.09 Mostly Cloudy BKN022 22.6 18.8 79% 75.74 0.0
06 16:55 N 17 16.09 Overcast OVC022 23.3 20 82% 75.74 0.0
06 16:35 NW 33 G 43 16.09 Mostly Cloudy and Breezy BKN022 BKN029 25.1 21.3 80% 26 75.72 0.0
06 16:15 N 20 16.09 Overcast FEW024 OVC030 27.5 23.9 81% 31 75.69 0.0
06 15:55 N 22 16.09 Overcast BKN025 OVC048 27.4 23.9 81% 31 75.69 0.0
06 15:35 N 15 16.09 Mostly Cloudy BKN027 BKN034 28.4 24.8 81% 33 75.69 0.0
06 15:15 N 6 16.09 A Few Clouds FEW023 28.2 25.1 83% 33 75.69 0.0
06 14:55 Vrbl 7 16.09 A Few Clouds FEW300 28.1 24.8 82% 33 75.72 0.0
06 14:35 E 7 16.09 A Few Clouds FEW300 27.6 24.5 83% 32 75.69 0.0
06 14:15 E 9 16.09 Partly Cloudy FEW047 SCT330 SCT360 26.4 23.4 84% 29 75.72 0.0
06 13:55 NE 7 16.09 Partly Cloudy SCT048 SCT360 24.1 21.8 87% 24 75.74 0.0
06 13:35 N 13 16.09 Partly Cloudy FEW049 SCT270 SCT350 SCT380 24.4 22 87% 25 75.77 0.0
06 13:15 N 15 16.09 Mostly Cloudy FEW018 SCT028 BKN047 BKN280 BKN360 23.4 21.4 89% 75.77 0.0
06 12:55 N 17 16.09 Mostly Cloudy BKN016 BKN028 BKN290 24 21.9 27.7 23.9 88% 24 75.79 0.0
06 12:35 Vrbl 6 16.09 Partly Cloudy FEW016 SCT310 27.7 25.2 86% 32 75.79 0.0
06 12:15 Vrbl 6 16.09 A Few Clouds FEW015 26.6 25.1 92% 30 75.82 0.0
06 11:55 NE 9 16.09 Mostly Cloudy SCT011 BKN017 25.9 25 95% 28 75.84 0.0
06 11:35 NE 7 16.09 Mostly Cloudy BKN011 BKN018 25.8 25.1 96% 28 75.87 0.0
06 11:15 NE 7 16.09 Partly Cloudy SCT012 SCT026 25.8 25.1 96% 28 75.87 0.0
06 10:55 NE 6 16.09 A Few Clouds FEW016 25.5 25.2 98% 27 75.79 0.0
06 10:35 Calm 14.48 Partly Cloudy SCT012 SCT021 25.2 25 99% 26 75.77 0.0
06 10:15 Vrbl 6 16.09 Overcast BKN011 BKN018 OVC025 25.1 25 99% 26 75.77 0.0
06 09:55 Calm 16.09 Overcast BKN011 OVC017 25 24.8 99% 25 75.77 0.0
06 09:35 SE 6 16.09 Overcast OVC011 24.9 24.9 100% 25 75.74 0.0
06 09:15 SE 6 16.09 Overcast OVC009 24.7 24.7 100% 24 75.72 0.0
06 08:55 Vrbl 6 16.09 Overcast OVC009 24.5 24.5 100% 24 75.69 0.0
06 08:35 SE 6 16.09 Overcast OVC010 24.4 24.4 100% 24 75.69 0.0
06 08:15 Calm 16.09 Overcast OVC010 24.3 24.3 100% 23 75.72 0.0
06 07:55 Calm 16.09 Overcast OVC010 24.1 24.1 100% 23 75.72 0.0
06 07:35 Calm 16.09 Overcast OVC009 24 24 100% 23 75.69 0.0
06 07:15 SE 7 16.09 Overcast OVC009 23.9 23.9 100% 22 75.69 0.0
06 06:55 S 7 12.87 Overcast OVC009 23.8 23.8 24 23.4 100% 75.69 0.0
06 06:35 S 6 12.87 Overcast OVC009 23.8 23.8 100% 75.67 0.0
06 06:15 SE 7 14.48 Overcast OVC008 23.7 23.7 100% 75.67 0.0
06 05:55 Calm 14.48 Overcast OVC007 23.5 23.5 100% 75.67 0.0
06 05:35 Calm 8.05 Fog/Mist OVC008 23.5 23.5 100% 75.64 0.0
06 05:15 S 7 12.87 Overcast OVC008 23.4 23.4 100% 75.62 0.0
06 04:55 S 11 14.48 Overcast OVC009 23.6 23.6 100% 75.59 0.0
06 04:35 S 11 16.09 Overcast OVC009 23.8 23.8 100% 75.59 0.0
06 04:15 S 9 14.48 Overcast OVC010 23.9 23.9 100% 22 75.59 0.0
06 03:55 S 9 14.48 Overcast OVC010 24 24 100% 23 75.59 0.0
06 03:35 S 9 16.09 Overcast OVC011 24 24 100% 23 75.59 0.0
06 03:15 S 11 16.09 Overcast OVC011 24 24 100% 23 75.59 0.0
06 02:55 S 11 16.09 Overcast OVC012 23.9 23.9 100% 22 75.62 0.0
06 02:35 S 13 14.48 Mostly Cloudy BKN013 23.8 23.8 100% 75.62 0.0
06 02:15 S 13 14.48 Partly Cloudy SCT013 23.6 23.6 100% 75.64 0.0
06 01:55 SE 11 14.48 Fair CLR 23.6 23.6 100% 75.64 0.0
06 01:35 S 11 14.48 Fair CLR 23.6 23.6 100% 75.67 0.0
06 00:55 SE 11 16.09 Fair CLR 23.9 23.9 27.5 23.9 100% 22 75.67 0.0
06 00:35 SE 15 16.09 Fair CLR 24 24 100% 23 75.64 0.0
06 00:15 S 13 16.09 Fair CLR 24.1 24.1 100% 23 75.67 0.0
05 23:55 S 15 16.09 A Few Clouds FEW250 24.2 24.2 100% 23 75.67 0.0
05 23:35 S 13 16.09 A Few Clouds FEW250 24.3 24.3 100% 23 75.67 0.0
05 23:15 SE 13 14.48 A Few Clouds FEW250 24.5 24.5 100% 24 75.64 0.0
05 22:55 S 17 14.48 Fair CLR 24.7 24.5 99% 25 75.62 0.0
05 22:35 Calm 14.48 Fair CLR 24.8 24.5 98% 25 75.59 0.0
05 22:15 SE 15 16.09 Partly Cloudy SCT044 25 24.5 97% 25 75.59 0.0
05 21:55 SE 20 G 28 16.09 Overcast OVC043 25.3 24.5 95% 26 75.59 0.0
05 21:35 SE 13 16.09 Overcast OVC041 25.4 24.4 94% 27 75.57 0.0
05 21:15 SE 17 16.09 Overcast OVC041 25.5 24.3 93% 27 75.57 0.0
05 20:55 SE 15 16.09 Overcast OVC041 25.8 24.2 91% 28 75.54 0.0
05 20:35 S 17 16.09 Overcast OVC041 26 24 89% 28 75.51 0.0
05 20:15 SE 15 12.87 Overcast OVC041 26.2 24 88% 28 75.49 0.0
05 19:55 SE 15 12.87 Overcast OVC040 26.5 24.1 87% 29 75.46 0.0
05 19:35 SE 17 14.48 Overcast FEW029 OVC040 26.8 24.1 85% 30 75.46 0.0
05 19:15 S 20 12.87 Overcast SCT028 OVC039 27.1 24 83% 30 75.46 0.0
05 18:55 SE 15 12.87 Overcast BKN030 OVC039 27.6 24.2 30 26.6 82% 31 75.46 0.0
05 18:35 S 17 14.48 Overcast OVC037 28 24 79% 32 75.44 0.0
05 18:15 S 20 12.87 Mostly Cloudy BKN038 28.2 24 78% 32 75.44 0.0
05 17:55 SE 17 16.09 Mostly Cloudy FEW027 BKN037 28.5 24.3 78% 33 75.44 0.0
05 17:35 S 17 16.09 Overcast OVC035 28.6 24.4 78% 33 75.44 0.0
05 17:15 SE 19 16.09 Overcast SCT029 OVC036 28.4 24.4 79% 33 75.46 0.0
05 16:55 S 24 14.48 Overcast SCT030 OVC037 28.6 24.5 79% 33 75.46 0.0
05 16:35 S 22 16.09 Mostly Cloudy BKN034 29.3 24.1 74% 34 75.46 0.0
05 16:15 S 20 16.09 Mostly Cloudy BKN032 29.6 24.4 74% 35 75.49 0.0
05 15:55 S 19 14.48 Mostly Cloudy BKN029 BKN036 29.5 24.3 74% 35 75.51 0.0
05 15:35 S 22 16.09 Mostly Cloudy SCT028 BKN037 29.5 24.6 75% 35 75.54 0.0
05 15:15 S 22 16.09 Mostly Cloudy BKN037 29.3 24.1 74% 34 75.57 0.0
05 14:55 S 17 16.09 Overcast SCT026 OVC033 28.3 24.2 78% 33 75.59 0.0
05 14:35 S 17 G 31 16.09 Overcast BKN026 OVC035 28.3 24 78% 32 75.59 0.0
05 14:15 S 15 16.09 Overcast SCT024 OVC035 28.8 24.4 77% 34 75.62 0.0
05 13:55 S 22 16.09 Overcast BKN023 OVC034 27.3 23.8 81% 31 75.64 0.0
05 13:35 S 19 16.09 Overcast FEW022 OVC031 27.3 23.7 81% 31 75.67 0.0
05 13:15 SW 20 14.48 Overcast OVC025 26.8 23.5 82% 29 75.67 0.0
05 12:55 S 20 16.09 Overcast OVC025 26.6 23.5 26.6 21.7 83% 29 75.67 0.0
05 12:35 S 15 16.09 Overcast BKN019 OVC025 26.2 23.5 85% 28 75.67 0.0
05 12:15 S 19 16.09 Overcast BKN019 OVC026 25.9 23.4 86% 28 75.69 0.0
05 11:55 S 19 16.09 Overcast SCT017 OVC025 25.8 23.4 87% 27 75.69 0.0
05 11:35 SW 19 16.09 Overcast BKN016 OVC025 25.5 23.5 89% 27 75.69 0.0
05 11:15 S 19 14.48 Overcast OVC018 25.1 23.3 90% 26 75.69 0.0
05 10:55 S 19 16.09 Overcast OVC015 25 23.6 92% 26 75.69 0.0
05 10:35 S 20 16.09 Overcast BKN013 OVC019 24.8 23.5 93% 25 75.69 0.0
05 10:15 S 17 16.09 Overcast BKN012 OVC019 24.2 23.3 95% 24 75.69 0.0
05 09:55 S 19 16.09 Overcast OVC010 23.6 23.1 97% 75.69 0.0
05 09:35 S 19 16.09 Overcast OVC009 23.4 23.3 99% 75.69 0.0
05 09:15 S 19 16.09 Overcast BKN008 OVC026 22.9 22.9 100% 75.67 0.0
05 08:55 S 15 14.48 Overcast OVC008 22.5 22.5 100% 75.67 0.0
05 08:35 S 20 16.09 Overcast OVC008 22.5 22.5 100% 75.67 0.0
05 08:15 S 17 14.48 Overcast OVC009 22.4 22.4 100% 75.64 0.0
05 07:55 S 17 16.09 Overcast OVC008 22.1 22.1 100% 75.64 0.0
05 07:35 S 17 16.09 Overcast BKN008 OVC020 21.8 21.8 100% 75.64 0.0
05 07:15 S 17 14.48 Overcast BKN008 OVC020 21.7 21.7 100% 75.62 0.0
05 06:55 S 15 14.48 Overcast OVC008 21.6 21.6 21.6 20.8 100% 75.62 0.0
05 06:35 S 15 16.09 Overcast OVC008 21.5 21.5 100% 75.62 0.0
05 06:15 S 15 16.09 Overcast OVC007 21.4 21.4 100% 75.59 0.0
05 05:55 S 11 16.09 Overcast OVC007 21.1 21.1 100% 75.62 0.0
05 05:35 S 13 16.09 Overcast OVC007 21 21 100% 75.59 0.0
05 05:15 S 11 16.09 Overcast OVC008 20.9 20.9 100% 75.59 0.0
05 04:55 S 11 16.09 Overcast OVC008 20.8 20.8 100% 75.62 0.0
05 04:35 S 11 16.09 Overcast OVC008 20.8 20.8 100% 75.62 0.0
05 04:15 S 15 16.09 Mostly Cloudy BKN009 BKN280 21 21 100% 75.62 0.0
05 03:55 S 15 16.09 Overcast BKN010 OVC016 21.2 21.2 100% 75.62 0.0
05 03:35 S 13 16.09 Overcast OVC010 21.3 21.3 100% 75.64 0.0
05 03:15 S 13 16.09 Overcast OVC010 21.3 21.3 100% 75.67 0.0
05 02:55 S 11 16.09 Overcast OVC011 21.2 21 99% 75.69 0.0
05 02:35 S 15 16.09 Overcast OVC011 21.1 21 99% 75.69 0.0
05 02:15 S 13 16.09 Overcast BKN013 BKN018 OVC270 21.2 21 99% 75.69 0.0
05 01:55 S 19 16.09 Overcast SCT013 SCT018 OVC270 21 20.9 99% 75.74 0.0
05 01:35 S 13 16.09 Mostly Cloudy SCT013 BKN270 21 20.7 98% 75.72 0.0
05 01:15 S 17 16.09 Mostly Cloudy BKN280 21 20.7 98% 75.74 0.0
05 00:55 S 19 16.09 Partly Cloudy SCT280 21.1 20.6 26 21 97% 75.72 0.0
05 00:35 S 22 16.09 Fair CLR 21 20.4 96% 75.74 0.0
05 00:15 S 19 16.09 A Few Clouds FEW290 21.2 20.4 95% 75.74 0.0
04 23:55 S 17 11.27 Overcast OVC290 21.3 20.3 94% 75.77 0.0
04 23:35 S 17 11.27 Mostly Cloudy BKN280 21.4 20.2 93% 75.77 0.0
04 23:15 S 17 11.27 A Few Clouds FEW280 21.4 20.3 93% 75.77 0.0
04 22:55 S 17 11.27 Partly Cloudy SCT280 21.5 20.2 92% 75.77 0.0
04 22:35 S 13 9.66 Fog/Mist OVC280 21.6 20.1 91% 75.79 0.0
04 22:15 S 13 16.09 Overcast OVC280 22 20.3 90% 75.77 0.0
04 21:55 S 15 14.48 Light Rain OVC290 22.1 20.4 90% 75.77 0.0
04 21:35 Calm 16.09 Mostly Cloudy BKN290 22.2 20.5 90% 75.74 0.0
04 21:15 SE 13 16.09 Fair CLR 22.5 20.4 88% 75.74 0.0
04 20:55 S 13 14.48 Fair CLR 23 20.3 85% 75.72 0.0
04 20:35 S 11 16.09 Fair CLR 23.2 20.3 84% 75.72 0.0
04 20:15 S 13 16.09 Fair CLR 23.7 20 80% 75.72 0.0
04 19:55 S 17 16.09 Fair CLR 24.8 19.4 72% 26 75.69 0.0
04 19:35 S 17 16.09 Partly Cloudy SCT050 25.3 19.4 70% 26 75.72 0.0
04 19:15 S 17 16.09 Overcast OVC050 25.8 19.4 68% 27 75.72 0.0
04 18:55 S 17 16.09 Mostly Cloudy BKN049 26.1 19.8 28.3 25.5 68% 27 75.72 0.0
04 18:35 S 22 16.09 Mostly Cloudy BKN049 26.1 19 65% 27 75.74 0.0
04 18:15 S 22 16.09 Overcast OVC048 26.6 19.1 64% 28 75.74 0.0
04 17:55 S 22 16.09 Overcast OVC047 26.7 18.8 62% 28 75.77 0.0
04 17:35 S 20 16.09 Overcast OVC047 27 18.6 60% 28 75.77 0.0
04 17:15 S 26 16.09 Overcast OVC048 27.3 18.3 58% 28 75.79 0.0
04 16:55 S 20 16.09 Mostly Cloudy BKN047 27.1 18.1 58% 28 75.77 0.0
04 16:35 S 19 16.09 Mostly Cloudy BKN048 27.9 17.5 53% 29 75.79 0.0
04 16:15 S 19 16.09 Mostly Cloudy BKN049 27.9 17.8 54% 29 75.82 0.0
04 15:55 S 17 16.09 Overcast OVC049 27.6 16.7 51% 28 75.87 0.0
04 15:35 S 17 16.09 Mostly Cloudy BKN045 27.6 16.9 52% 28 75.87 0.0
04 15:15 SE 19 16.09 Mostly Cloudy BKN045 BKN050 28.2 17.1 51% 29 75.9 0.0
04 14:55 S 20 16.09 Mostly Cloudy BKN046 BKN310 27.5 17.1 53% 28 75.92 0.0
04 14:35 S 19 G 31 16.09 Mostly Cloudy BKN044 27 17.1 55% 28 75.95 0.0
04 14:15 SW 19 G 31 16.09 Mostly Cloudy SCT044 BKN370 26.8 17.4 56% 28 75.95 0.0
04 13:55 SW 17 16.09 A Few Clouds FEW039 26.7 17.8 58% 28 76 0.0
04 13:35 S 19 G 28 16.09 Partly Cloudy SCT041 SCT350 26.9 18 58% 28 76 0.0
04 13:15 S 15 16.09 Mostly Cloudy BKN045 25.9 17.8 61% 27 76.02 0.0
04 12:55 SW 17 16.09 Overcast OVC040 25.1 17.9 25.5 14.6 64% 26 76.07 0.0
04 12:35 SW 19 16.09 Overcast OVC038 24.8 17.8 65% 26 76.07 0.0
04 12:15 S 13 16.09 Overcast OVC037 24.7 18 66% 26 76.1 0.0
04 11:55 S 20 16.09 Overcast OVC033 24.7 18 66% 26 76.12 0.0
04 11:35 S 15 16.09 Mostly Cloudy BKN032 24 17.6 68% 25 76.12 0.0
04 11:15 SW 20 16.09 Partly Cloudy SCT032 24.6 17.4 64% 26 76.12 0.0
04 10:55 S 19 16.09 A Few Clouds FEW031 23.7 17.5 68% 76.12 0.0
04 10:35 S 24 16.09 Fair CLR 23.5 17.6 70% 76.15 0.0
04 10:15 S 20 16.09 Fair CLR 23.2 17.7 71% 76.17 0.0
04 09:55 S 26 G 37 16.09 Fair CLR 22.5 17.1 72% 76.15 0.0
04 09:35 S 19 16.09 Fair CLR 22 16.9 73% 76.17 0.0
04 09:15 S 22 16.09 Fair CLR 21.2 16.6 75% 76.17 0.0
04 08:55 S 15 16.09 Fair CLR 19.9 15.9 78% 76.17 0.0
04 08:35 S 11 16.09 Fair CLR 19.9 16.1 79% 76.17 0.0
04 08:15 S 9 16.09 Partly Cloudy SCT200 18.2 15.3 83% 76.17 0.0
04 07:55 Calm 16.09 Mostly Cloudy BKN200 16.2 14.5 90% 76.17 0.0
04 07:35 Calm 16.09 Partly Cloudy SCT200 15.5 14.2 92% 76.15 0.0
04 07:15 Calm 16.09 Mostly Cloudy BKN210 14.9 13.6 92% 76.12 0.0
04 06:55 Calm 16.09 Partly Cloudy SCT210 14.2 13.4 18 14.2 95% 76.12 0.0
04 06:35 S 6 16.09 Fair CLR 14.2 13.4 95% 76.12 0.0
04 06:15 S 7 16.09 Fair CLR 14.3 13.3 94% 76.12 0.0
04 05:55 S 6 16.09 Fair CLR 14.5 13.3 93% 76.15 0.0
04 05:35 S 6 16.09 Fair CLR 14.6 13.1 91% 76.12 0.0
04 05:15 Calm 16.09 Fair CLR 15.2 13.2 88% 76.15 0.0
04 04:55 SE 6 16.09 Fair CLR 15.6 13.2 86% 76.15 0.0
04 04:35 S 9 16.09 Fair CLR 15.2 13.3 89% 76.12 0.0
04 04:15 S 9 16.09 Fair CLR 15.3 13.3 88% 76.15 0.0
04 03:55 SE 9 16.09 Fair CLR 15.8 13.5 86% 76.17 0.0
04 03:35 S 7 16.09 Fair CLR 16.1 13.3 84% 76.2 0.0
04 03:15 S 9 16.09 Fair CLR 16.5 13.4 82% 76.2 0.0
04 02:55 S 9 16.09 Fair CLR 16.9 13.3 79% 76.2 0.0
04 02:35 S 11 16.09 Fair CLR 17.1 13.4 79% 76.23 0.0
04 02:15 S 13 16.09 Fair CLR 17.5 13.6 78% 76.28 0.0
04 01:55 S 15 16.09 Fair CLR 17.6 13.7 78% 76.3 0.0
04 01:35 S 15 16.09 Fair CLR 17.8 13.6 77% 76.3 0.0
04 01:15 S 15 16.09 Fair CLR 17.9 13.7 77% 76.33 0.0
04 00:55 S 11 16.09 Fair CLR 17.9 13.6 24.8 17.8 76% 76.35 0.0
04 00:35 S 13 16.09 Fair CLR 17.9 13.6 76% 76.33 0.0
04 00:15 S 11 16.09 Fair CLR 18 13.6 76% 76.35 0.0
03 23:55 S 15 16.09 A Few Clouds FEW240 18.2 13.5 74% 76.35 0.0
03 23:35 S 13 16.09 Partly Cloudy SCT240 SCT260 18.2 13.5 74% 76.38 0.0
03 23:15 S 11 16.09 Partly Cloudy SCT250 18.3 13.3 73% 76.38 0.0
03 22:55 S 13 16.09 Fair CLR 18.6 13.1 71% 76.38 0.0
03 22:35 S 15 16.09 Fair CLR 19 13.1 69% 76.38 0.0
03 22:15 S 13 16.09 Fair CLR 19 13.4 70% 76.38 0.0
03 21:55 S 11 16.09 Partly Cloudy SCT250 19.5 13.5 68% 76.38 0.0
03 21:35 S 15 16.09 Mostly Cloudy BKN250 20 13.4 66% 76.35 0.0
03 21:15 SE 15 16.09 Partly Cloudy SCT250 20.3 13.9 67% 76.33 0.0
Date Time (cdt) Wind (kph) Vis. (km) Weather Sky Cond. Air Dwpt Max. Min. Relative Humidity Wind Chill (°C) Heat Index (°C) altimeter (cm) sea level (mb) 1 hr 3 hr 6 hr
6 hour
Temperature (ºC) Pressure Precipitation (cm)